createdAt,value
2022-10-03T00:00:57.951Z,13.4
2022-10-03T00:02:01.516Z,13.3
2022-10-03T00:03:05.252Z,13.3
2022-10-03T00:04:08.613Z,13.3
2022-10-03T00:05:12.393Z,13.3
2022-10-03T00:06:15.329Z,13.3
2022-10-03T00:07:18.138Z,13.3
2022-10-03T00:08:21.516Z,13.3
2022-10-03T00:09:25.214Z,13.3
2022-10-03T00:10:28.287Z,13.3
2022-10-03T00:11:31.816Z,13.3
2022-10-03T00:12:35.259Z,13.3
2022-10-03T00:13:38.482Z,13.3
2022-10-03T00:14:41.301Z,13.3
2022-10-03T00:15:43.910Z,13.2
2022-10-03T00:16:47.488Z,13.3
2022-10-03T00:17:51.591Z,13.3
2022-10-03T00:18:54.761Z,13.3
2022-10-03T00:19:57.478Z,13.3
2022-10-03T00:21:00.313Z,13.3
2022-10-03T00:22:03.381Z,13.3
2022-10-03T00:23:06.743Z,13.3
2022-10-03T00:24:10.486Z,13.3
2022-10-03T00:25:13.694Z,13.3
2022-10-03T00:26:16.776Z,13.3
2022-10-03T00:27:19.286Z,13.2
2022-10-03T00:28:22.025Z,13.3
2022-10-03T00:29:25.269Z,13.3
2022-10-03T00:30:28.578Z,13.3
2022-10-03T00:31:32.168Z,13.3
2022-10-03T00:32:35.534Z,13.3
2022-10-03T00:33:38.462Z,13.3
2022-10-03T00:34:41.753Z,13.3
2022-10-03T00:35:44.855Z,13.3
2022-10-03T00:36:47.485Z,13.2
2022-10-03T00:37:51.235Z,13.2
2022-10-03T00:38:54.692Z,13.3
2022-10-03T00:39:57.206Z,13.3
2022-10-03T00:41:00.267Z,13.2
2022-10-03T00:42:02.583Z,13.2
2022-10-03T00:43:05.988Z,13.2
2022-10-03T00:44:09.131Z,13.3
2022-10-03T00:45:11.839Z,13.3
2022-10-03T00:46:14.776Z,13.3
2022-10-03T00:47:17.805Z,13.3
2022-10-03T00:48:20.885Z,13.3
2022-10-03T00:49:24.003Z,13.3
2022-10-03T00:50:26.304Z,13.3
2022-10-03T00:51:29.381Z,13.3
2022-10-03T00:52:32.755Z,13.3
2022-10-03T00:53:36.517Z,13.3
2022-10-03T00:54:39.328Z,13.2
2022-10-03T00:55:43.056Z,13.3
2022-10-03T00:56:45.926Z,13.3
2022-10-03T00:57:48.999Z,13.3
2022-10-03T00:58:51.779Z,13.3
2022-10-03T00:59:54.584Z,13.3
2022-10-03T01:00:57.842Z,13.3
2022-10-03T01:02:01.752Z,13.3
2022-10-03T01:03:05.132Z,13.3
2022-10-03T01:04:08.576Z,13.3
2022-10-03T01:05:12.389Z,13.3
2022-10-03T01:06:15.545Z,13.3
2022-10-03T01:07:18.735Z,13.3
2022-10-03T01:08:21.625Z,13.3
2022-10-03T01:09:24.796Z,13.3
2022-10-03T01:10:27.588Z,13.3
2022-10-03T01:11:30.653Z,13.3
2022-10-03T01:12:34.033Z,13.3
2022-10-03T01:13:36.536Z,13.3
2022-10-03T01:14:38.763Z,13.3
2022-10-03T01:15:41.785Z,13.3
2022-10-03T01:16:44.300Z,13.3
2022-10-03T01:17:47.390Z,13.3
2022-10-03T01:18:50.832Z,13.3
2022-10-03T01:19:54.098Z,13.3
2022-10-03T01:20:57.486Z,13.3
2022-10-03T01:22:00.178Z,13.3
2022-10-03T01:23:03.444Z,13.3
2022-10-03T01:24:06.440Z,13.3
2022-10-03T01:25:09.713Z,13.3
2022-10-03T01:26:13.441Z,13.3
2022-10-03T01:27:16.237Z,13.3
2022-10-03T01:28:19.323Z,13.3
2022-10-03T01:29:22.694Z,13.3
2022-10-03T01:30:25.772Z,13.3
2022-10-03T01:31:28.479Z,13.2
2022-10-03T01:32:31.302Z,13.2
2022-10-03T01:33:34.755Z,13.3
2022-10-03T01:34:37.185Z,13.2
2022-10-03T01:35:40.698Z,13.2
2022-10-03T01:36:43.605Z,13.2
2022-10-03T01:37:46.987Z,13.2
2022-10-03T01:38:50.144Z,13.2
2022-10-03T01:39:53.588Z,13.2
2022-10-03T01:40:56.540Z,13.2
2022-10-03T01:42:00.239Z,13.2
2022-10-03T01:43:03.852Z,13.2
2022-10-03T01:44:06.803Z,13.2
2022-10-03T01:45:09.590Z,13.2
2022-10-03T01:46:13.263Z,13.2
2022-10-03T01:47:15.926Z,13.2
2022-10-03T01:48:19.025Z,13.2
2022-10-03T01:49:22.140Z,13.2
2022-10-03T01:50:24.934Z,13.2
2022-10-03T01:51:28.655Z,13.2
2022-10-03T01:52:32.484Z,13.2
2022-10-03T01:53:35.593Z,13.2
2022-10-03T01:54:38.655Z,13.2
2022-10-03T01:55:42.171Z,13.2
2022-10-03T01:56:45.597Z,13.2
2022-10-03T01:57:48.565Z,13.2
2022-10-03T01:58:51.656Z,13.2
2022-10-03T01:59:54.446Z,13.2
2022-10-03T02:00:57.524Z,13.2
2022-10-03T02:02:00.366Z,13.2
2022-10-03T02:03:03.136Z,13.2
2022-10-03T02:04:06.220Z,13.2
2022-10-03T02:05:09.313Z,13.2
2022-10-03T02:06:11.360Z,13.2
2022-10-03T02:07:14.373Z,13.2
2022-10-03T02:08:18.256Z,13.2
2022-10-03T02:09:21.428Z,13.2
2022-10-03T02:10:24.885Z,13.3
2022-10-03T02:11:28.086Z,13.3
2022-10-03T02:12:31.741Z,13.3
2022-10-03T02:13:35.197Z,13.3
2022-10-03T02:14:38.178Z,13.3
2022-10-03T02:15:41.050Z,13.3
2022-10-03T02:16:44.129Z,13.3
2022-10-03T02:17:47.204Z,13.3
2022-10-03T02:18:50.019Z,13.3
2022-10-03T02:19:52.896Z,13.3
2022-10-03T02:20:56.504Z,13.3
2022-10-03T02:21:59.779Z,13.3
2022-10-03T02:23:03.013Z,13.3
2022-10-03T02:24:06.202Z,13.4
2022-10-03T02:25:08.650Z,13.3
2022-10-03T02:26:11.436Z,13.4
2022-10-03T02:27:15.199Z,13.3
2022-10-03T02:28:18.710Z,13.4
2022-10-03T02:29:21.883Z,13.3
2022-10-03T02:30:24.485Z,13.4
2022-10-03T02:31:28.356Z,13.4
2022-10-03T02:32:31.979Z,13.4
2022-10-03T02:33:35.470Z,13.4
2022-10-03T02:34:38.188Z,13.4
2022-10-03T02:35:41.245Z,13.4
2022-10-03T02:36:44.422Z,13.4
2022-10-03T02:37:47.411Z,13.4
2022-10-03T02:38:50.635Z,13.4
2022-10-03T02:39:53.857Z,13.4
2022-10-03T02:40:56.313Z,13.4
2022-10-03T02:41:59.473Z,13.4
2022-10-03T02:43:02.919Z,13.4
2022-10-03T02:44:06.233Z,13.4
2022-10-03T02:45:09.407Z,13.4
2022-10-03T02:46:12.619Z,13.4
2022-10-03T02:47:15.583Z,13.5
2022-10-03T02:48:33.164Z,13.4
2022-10-03T02:49:36.793Z,13.4
2022-10-03T02:50:39.932Z,13.5
2022-10-03T02:51:43.445Z,13.5
2022-10-03T02:52:45.985Z,13.5
2022-10-03T02:53:48.847Z,13.5
2022-10-03T02:54:51.582Z,13.5
2022-10-03T02:55:55.084Z,13.5
2022-10-03T02:56:57.894Z,13.4
2022-10-03T02:58:00.414Z,13.4
2022-10-03T02:59:03.941Z,13.4
2022-10-03T03:00:06.755Z,13.4
2022-10-03T03:01:09.516Z,13.4
2022-10-03T03:02:12.712Z,13.4
2022-10-03T03:03:15.844Z,13.4
2022-10-03T03:04:19.304Z,13.4
2022-10-03T03:05:22.370Z,13.4
2022-10-03T03:06:25.516Z,13.4
2022-10-03T03:07:28.320Z,13.4
2022-10-03T03:08:32.346Z,13.4
2022-10-03T03:09:35.380Z,13.4
2022-10-03T03:10:38.707Z,13.4
2022-10-03T03:11:43.097Z,13.3
2022-10-03T03:12:45.735Z,13.3
2022-10-03T03:13:48.902Z,13.3
2022-10-03T03:14:52.100Z,13.3
2022-10-03T03:15:55.172Z,13.3
2022-10-03T03:16:58.103Z,13.3
2022-10-03T03:18:01.247Z,13.3
2022-10-03T03:19:04.681Z,13.3
2022-10-03T03:20:07.772Z,13.2
2022-10-03T03:21:10.493Z,13.2
2022-10-03T03:22:13.282Z,13.2
2022-10-03T03:23:15.808Z,13.2
2022-10-03T03:24:19.549Z,13.2
2022-10-03T03:25:22.792Z,13.1
2022-10-03T03:26:26.292Z,13.2
2022-10-03T03:27:29.488Z,13.2
2022-10-03T03:28:32.985Z,13.1
2022-10-03T03:29:36.395Z,13.1
2022-10-03T03:30:39.939Z,13.1
2022-10-03T03:31:44.773Z,13.1
2022-10-03T03:32:48.253Z,13.1
2022-10-03T03:33:51.524Z,13.1
2022-10-03T03:34:54.977Z,13.1
2022-10-03T03:35:58.127Z,13
2022-10-03T03:37:01.113Z,13.1
2022-10-03T03:38:03.896Z,13
2022-10-03T03:39:06.509Z,13
2022-10-03T03:40:09.332Z,13
2022-10-03T03:41:12.607Z,13.1
2022-10-03T03:42:15.578Z,13.1
2022-10-03T03:43:19.345Z,13.1
2022-10-03T03:44:22.950Z,13
2022-10-03T03:45:26.311Z,13
2022-10-03T03:46:29.906Z,13
2022-10-03T03:47:32.722Z,13
2022-10-03T03:48:36.373Z,13
2022-10-03T03:49:38.984Z,13
2022-10-03T03:50:41.922Z,13
2022-10-03T03:51:45.592Z,13
2022-10-03T03:52:48.097Z,13
2022-10-03T03:53:51.697Z,13
2022-10-03T03:54:55.418Z,12.9
2022-10-03T03:55:58.779Z,12.9
2022-10-03T03:57:02.132Z,12.9
2022-10-03T03:58:05.501Z,12.9
2022-10-03T03:59:09.321Z,12.9
2022-10-03T04:00:12.160Z,12.9
2022-10-03T04:01:15.806Z,12.9
2022-10-03T04:02:19.304Z,12.9
2022-10-03T04:03:23.005Z,12.9
2022-10-03T04:04:25.785Z,12.9
2022-10-03T04:05:28.857Z,12.8
2022-10-03T04:06:31.923Z,12.8
2022-10-03T04:07:34.997Z,12.8
2022-10-03T04:08:37.945Z,12.8
2022-10-03T04:09:40.487Z,12.8
2022-10-03T04:10:44.130Z,12.8
2022-10-03T04:11:47.580Z,12.8
2022-10-03T04:12:50.470Z,12.8
2022-10-03T04:13:53.635Z,12.8
2022-10-03T04:14:57.459Z,12.8
2022-10-03T04:16:00.572Z,12.8
2022-10-03T04:17:03.284Z,12.8
2022-10-03T04:18:06.469Z,12.8
2022-10-03T04:19:09.384Z,12.8
2022-10-03T04:20:12.343Z,12.8
2022-10-03T04:21:19.960Z,12.8
2022-10-03T04:22:23.107Z,12.8
2022-10-03T04:23:26.629Z,12.8
2022-10-03T04:24:29.616Z,12.8
2022-10-03T04:25:32.766Z,12.8
2022-10-03T04:26:35.547Z,12.8
2022-10-03T04:27:38.013Z,12.8
2022-10-03T04:28:41.820Z,12.8
2022-10-03T04:29:45.412Z,12.8
2022-10-03T04:30:48.454Z,12.8
2022-10-03T04:31:51.061Z,12.8
2022-10-03T04:32:54.086Z,12.8
2022-10-03T04:33:57.005Z,12.8
2022-10-03T04:35:00.165Z,12.8
2022-10-03T04:36:03.514Z,12.8
2022-10-03T04:37:06.737Z,12.7
2022-10-03T04:38:09.807Z,12.8
2022-10-03T04:39:12.263Z,12.8
2022-10-03T04:40:14.787Z,12.8
2022-10-03T04:41:18.443Z,12.8
2022-10-03T04:42:20.950Z,12.8
2022-10-03T04:43:23.494Z,12.7
2022-10-03T04:44:26.003Z,12.7
2022-10-03T04:45:29.606Z,12.7
2022-10-03T04:46:33.798Z,12.7
2022-10-03T04:47:36.629Z,12.8
2022-10-03T04:48:40.087Z,12.7
2022-10-03T04:49:43.274Z,12.7
2022-10-03T04:50:46.371Z,12.7
2022-10-03T04:51:56.320Z,12.7
2022-10-03T04:52:59.417Z,12.7
2022-10-03T04:54:02.327Z,12.7
2022-10-03T04:55:05.480Z,12.7
2022-10-03T04:56:08.676Z,12.7
2022-10-03T04:57:11.457Z,12.7
2022-10-03T04:58:14.059Z,12.7
2022-10-03T04:59:16.782Z,12.7
2022-10-03T05:00:19.496Z,12.7
2022-10-03T05:01:22.594Z,12.7
2022-10-03T05:02:26.850Z,12.7
2022-10-03T05:03:30.604Z,12.7
2022-10-03T05:04:33.699Z,12.7
2022-10-03T05:05:36.808Z,12.8
2022-10-03T05:06:40.679Z,12.7
2022-10-03T05:07:43.854Z,12.7
2022-10-03T05:08:47.018Z,12.8
2022-10-03T05:09:50.429Z,12.7
2022-10-03T05:10:53.499Z,12.7
2022-10-03T05:11:55.939Z,12.7
2022-10-03T05:12:59.082Z,12.7
2022-10-03T05:14:02.249Z,12.7
2022-10-03T05:15:05.134Z,12.7
2022-10-03T05:16:08.743Z,12.7
2022-10-03T05:17:11.205Z,12.7
2022-10-03T05:18:14.168Z,12.7
2022-10-03T05:19:17.257Z,12.7
2022-10-03T05:20:19.691Z,12.7
2022-10-03T05:21:23.176Z,12.7
2022-10-03T05:22:26.555Z,12.7
2022-10-03T05:23:30.284Z,12.7
2022-10-03T05:24:33.456Z,12.7
2022-10-03T05:25:36.165Z,12.7
2022-10-03T05:26:46.772Z,12.7
2022-10-03T05:27:50.318Z,12.7
2022-10-03T05:28:53.278Z,12.7
2022-10-03T05:29:56.151Z,12.7
2022-10-03T05:30:59.255Z,12.7
2022-10-03T05:32:01.777Z,12.7
2022-10-03T05:33:09.458Z,12.7
2022-10-03T05:34:12.690Z,12.7
2022-10-03T05:35:15.499Z,12.7
2022-10-03T05:36:18.387Z,12.7
2022-10-03T05:37:21.568Z,12.7
2022-10-03T05:38:24.718Z,12.7
2022-10-03T05:39:28.184Z,12.7
2022-10-03T05:40:31.560Z,12.7
2022-10-03T05:41:34.812Z,12.7
2022-10-03T05:42:37.889Z,12.7
2022-10-03T05:43:40.848Z,12.7
2022-10-03T05:44:44.297Z,12.7
2022-10-03T05:45:47.701Z,12.7
2022-10-03T05:46:51.687Z,12.7
2022-10-03T05:47:55.042Z,12.7
2022-10-03T05:48:57.880Z,12.7
2022-10-03T05:50:01.085Z,12.7
2022-10-03T05:51:18.021Z,12.8
2022-10-03T05:52:21.101Z,12.8
2022-10-03T05:53:24.928Z,12.8
2022-10-03T05:54:28.560Z,12.8
2022-10-03T05:55:30.608Z,12.8
2022-10-03T05:56:41.337Z,12.8
2022-10-03T05:57:44.509Z,12.8
2022-10-03T05:58:47.576Z,12.9
2022-10-03T05:59:50.545Z,12.9
2022-10-03T06:00:53.418Z,12.9
2022-10-03T06:01:56.611Z,12.9
2022-10-03T06:03:00.120Z,12.9
2022-10-03T06:04:06.861Z,12.9
2022-10-03T06:05:10.345Z,12.9
2022-10-03T06:06:13.083Z,12.9
2022-10-03T06:07:16.263Z,13
2022-10-03T06:08:19.432Z,13
2022-10-03T06:09:22.938Z,13
2022-10-03T06:10:26.097Z,13
2022-10-03T06:11:29.168Z,13
2022-10-03T06:12:31.955Z,13
2022-10-03T06:13:35.386Z,13
2022-10-03T06:14:38.661Z,13
2022-10-03T06:15:42.043Z,13
2022-10-03T06:16:45.657Z,13
2022-10-03T06:17:48.182Z,13
2022-10-03T06:18:51.523Z,13
2022-10-03T06:19:54.996Z,13
2022-10-03T06:20:58.483Z,13
2022-10-03T06:22:02.219Z,13
2022-10-03T06:23:06.658Z,13
2022-10-03T06:24:09.397Z,13
2022-10-03T06:25:12.621Z,13
2022-10-03T06:26:16.350Z,13
2022-10-03T06:27:18.505Z,13
2022-10-03T06:28:21.540Z,13
2022-10-03T06:29:23.924Z,13
2022-10-03T06:30:26.195Z,13
2022-10-03T06:31:32.839Z,13
2022-10-03T06:32:36.025Z,13
2022-10-03T06:33:39.766Z,13
2022-10-03T06:34:43.118Z,13
2022-10-03T06:35:45.918Z,13
2022-10-03T06:36:49.699Z,13
2022-10-03T06:37:52.513Z,13.1
2022-10-03T06:38:55.652Z,13.1
2022-10-03T06:39:58.728Z,13.1
2022-10-03T06:41:01.905Z,13.1
2022-10-03T06:42:05.087Z,13.1
2022-10-03T06:43:08.066Z,13.1
2022-10-03T06:44:10.321Z,13.1
2022-10-03T06:45:13.195Z,13.2
2022-10-03T06:46:16.495Z,13.2
2022-10-03T06:47:19.579Z,13.2
2022-10-03T06:48:23.240Z,13.3
2022-10-03T06:49:26.601Z,13.3
2022-10-03T06:50:30.142Z,13.3
2022-10-03T06:51:32.952Z,13.3
2022-10-03T06:52:36.072Z,13.3
2022-10-03T06:53:38.975Z,13.4
2022-10-03T06:54:42.652Z,13.4
2022-10-03T06:55:45.615Z,13.4
2022-10-03T06:56:51.246Z,13.4
2022-10-03T06:57:54.347Z,13.5
2022-10-03T06:58:57.767Z,13.5
2022-10-03T07:00:00.587Z,13.5
2022-10-03T07:01:03.541Z,13.6
2022-10-03T07:02:06.329Z,13.6
2022-10-03T07:03:10.008Z,13.6
2022-10-03T07:04:13.357Z,13.7
2022-10-03T07:05:16.543Z,13.7
2022-10-03T07:06:19.043Z,13.7
2022-10-03T07:07:21.507Z,13.7
2022-10-03T07:08:24.761Z,13.7
2022-10-03T07:09:28.211Z,13.7
2022-10-03T07:10:31.645Z,13.8
2022-10-03T07:11:34.720Z,13.8
2022-10-03T07:12:38.118Z,13.8
2022-10-03T07:13:41.477Z,13.8
2022-10-03T07:14:44.632Z,13.8
2022-10-03T07:16:33.068Z,13.8
2022-10-03T07:17:37.091Z,13.8
2022-10-03T07:18:40.231Z,13.8
2022-10-03T07:19:43.053Z,13.9
2022-10-03T07:20:46.239Z,13.9
2022-10-03T07:21:49.285Z,13.9
2022-10-03T07:22:52.728Z,13.9
2022-10-03T07:23:55.687Z,13.9
2022-10-03T07:24:58.498Z,14
2022-10-03T07:26:01.379Z,14
2022-10-03T07:27:04.834Z,13.9
2022-10-03T07:28:08.351Z,14
2022-10-03T07:29:11.341Z,14
2022-10-03T07:30:14.488Z,14
2022-10-03T07:31:18.177Z,14
2022-10-03T07:32:21.574Z,14
2022-10-03T07:33:24.805Z,14
2022-10-03T07:34:28.531Z,14.1
2022-10-03T07:35:31.600Z,14.1
2022-10-03T07:36:34.696Z,14.1
2022-10-03T07:37:38.115Z,14.1
2022-10-03T07:38:41.387Z,14.1
2022-10-03T07:39:44.780Z,14.1
2022-10-03T07:40:47.651Z,14.1
2022-10-03T07:41:51.095Z,14.2
2022-10-03T07:42:54.488Z,14.2
2022-10-03T07:43:57.283Z,14.2
2022-10-03T07:45:01.001Z,14.2
2022-10-03T07:46:04.235Z,14.2
2022-10-03T07:47:08.018Z,14.3
2022-10-03T07:48:11.421Z,14.3
2022-10-03T07:49:19.372Z,14.3
2022-10-03T07:50:22.331Z,14.3
2022-10-03T07:51:24.608Z,14.3
2022-10-03T07:52:27.723Z,14.4
2022-10-03T07:53:31.160Z,14.4
2022-10-03T07:54:34.570Z,14.4
2022-10-03T07:55:38.316Z,14.4
2022-10-03T07:56:41.397Z,14.4
2022-10-03T07:57:44.650Z,14.5
2022-10-03T07:58:47.090Z,14.5
2022-10-03T07:59:50.006Z,14.5
2022-10-03T08:00:53.090Z,14.5
2022-10-03T08:01:56.825Z,14.5
2022-10-03T08:03:00.287Z,14.6
2022-10-03T08:04:04.218Z,14.6
2022-10-03T08:05:07.301Z,14.6
2022-10-03T08:06:10.161Z,14.6
2022-10-03T08:07:13.242Z,14.7
2022-10-03T08:08:16.721Z,14.7
2022-10-03T08:09:19.711Z,14.7
2022-10-03T08:10:22.775Z,14.8
2022-10-03T08:11:26.293Z,14.7
2022-10-03T08:12:29.113Z,14.8
2022-10-03T08:13:32.199Z,14.8
2022-10-03T08:14:35.635Z,14.8
2022-10-03T08:15:39.342Z,14.9
2022-10-03T08:16:42.925Z,14.9
2022-10-03T08:17:46.089Z,14.9
2022-10-03T08:18:49.241Z,14.9
2022-10-03T08:19:52.042Z,15
2022-10-03T08:20:54.208Z,15
2022-10-03T08:21:57.555Z,15
2022-10-03T08:23:00.355Z,15
2022-10-03T08:24:03.668Z,15
2022-10-03T08:25:06.841Z,15
2022-10-03T08:26:10.712Z,15.1
2022-10-03T08:27:14.093Z,15.1
2022-10-03T08:28:17.369Z,15.1
2022-10-03T08:29:20.404Z,15.1
2022-10-03T08:30:23.271Z,15.2
2022-10-03T08:31:27.046Z,15.2
2022-10-03T08:32:30.544Z,15.2
2022-10-03T08:33:33.742Z,15.3
2022-10-03T08:34:36.821Z,15.3
2022-10-03T08:35:39.640Z,15.4
2022-10-03T08:36:43.268Z,15.4
2022-10-03T08:37:47.118Z,15.4
2022-10-03T08:38:50.114Z,15.4
2022-10-03T08:39:52.647Z,15.5
2022-10-03T08:40:55.537Z,15.5
2022-10-03T08:41:58.986Z,15.5
2022-10-03T08:43:02.765Z,15.5
2022-10-03T08:44:05.467Z,15.5
2022-10-03T08:45:08.594Z,15.6
2022-10-03T08:46:12.081Z,15.6
2022-10-03T08:47:15.492Z,15.6
2022-10-03T08:48:18.835Z,15.6
2022-10-03T08:49:21.994Z,15.6
2022-10-03T08:50:25.089Z,15.6
2022-10-03T08:51:28.532Z,15.6
2022-10-03T08:52:31.511Z,15.6
2022-10-03T08:53:34.851Z,15.7
2022-10-03T08:54:37.341Z,15.6
2022-10-03T08:55:40.131Z,15.7
2022-10-03T08:56:43.670Z,15.7
2022-10-03T08:57:46.640Z,15.8
2022-10-03T08:58:49.753Z,15.8
2022-10-03T08:59:53.047Z,15.9
2022-10-03T09:00:56.145Z,15.9
2022-10-03T09:01:59.403Z,15.9
2022-10-03T09:03:43.000Z,16
2022-10-03T09:04:47.083Z,16.1
2022-10-03T09:05:50.337Z,16.1
2022-10-03T09:07:19.905Z,16.2
2022-10-03T09:08:25.467Z,16.2
2022-10-03T09:09:30.280Z,16.3
2022-10-03T09:10:38.998Z,16.4
2022-10-03T09:11:42.190Z,16.4
2022-10-03T09:12:44.849Z,16.5
2022-10-03T09:13:48.679Z,16.5
2022-10-03T09:14:52.470Z,16.6
2022-10-03T09:15:55.304Z,16.6
2022-10-03T09:16:57.771Z,16.6
2022-10-03T09:18:00.917Z,16.6
2022-10-03T09:19:04.006Z,16.7
2022-10-03T09:20:07.515Z,16.6
2022-10-03T09:21:10.307Z,16.6
2022-10-03T09:22:14.054Z,16.6
2022-10-03T09:23:16.840Z,16.6
2022-10-03T09:24:19.920Z,16.6
2022-10-03T09:25:22.703Z,16.6
2022-10-03T09:26:25.973Z,16.6
2022-10-03T09:27:28.618Z,16.6
2022-10-03T09:28:31.577Z,16.6
2022-10-03T09:29:35.482Z,16.6
2022-10-03T09:30:38.958Z,16.6
2022-10-03T09:31:43.843Z,16.6
2022-10-03T09:32:47.398Z,16.6
2022-10-03T09:33:50.501Z,16.6
2022-10-03T09:34:54.619Z,16.6
2022-10-03T09:35:58.003Z,16.7
2022-10-03T09:37:01.120Z,16.6
2022-10-03T09:38:04.263Z,16.6
2022-10-03T09:39:07.338Z,16.6
2022-10-03T09:40:10.294Z,16.6
2022-10-03T09:41:12.804Z,16.7
2022-10-03T09:42:16.455Z,16.6
2022-10-03T09:43:18.713Z,16.6
2022-10-03T09:44:21.490Z,16.6
2022-10-03T09:45:25.211Z,16.6
2022-10-03T09:46:29.167Z,16.5
2022-10-03T09:47:33.160Z,16.6
2022-10-03T09:48:36.692Z,16.5
2022-10-03T09:49:39.407Z,16.5
2022-10-03T09:50:42.584Z,16.6
2022-10-03T09:51:45.685Z,16.6
2022-10-03T09:52:48.751Z,16.7
2022-10-03T09:53:51.535Z,16.7
2022-10-03T09:54:54.812Z,16.8
2022-10-03T09:55:57.319Z,16.9
2022-10-03T09:57:00.370Z,17
2022-10-03T09:58:04.381Z,17.2
2022-10-03T09:59:07.813Z,17.3
2022-10-03T10:00:10.709Z,17.4
2022-10-03T10:01:14.258Z,17.5
2022-10-03T10:02:17.627Z,17.6
2022-10-03T10:03:20.735Z,17.6
2022-10-03T10:04:56.464Z,17.7
2022-10-03T10:06:00.071Z,17.7
2022-10-03T10:07:02.897Z,17.8
2022-10-03T10:08:06.087Z,17.8
2022-10-03T10:09:08.628Z,17.9
2022-10-03T10:10:11.862Z,17.9
2022-10-03T10:11:14.183Z,17.8
2022-10-03T10:12:17.576Z,17.8
2022-10-03T10:13:20.696Z,17.8
2022-10-03T10:14:23.868Z,17.8
2022-10-03T10:15:26.999Z,17.8
2022-10-03T10:16:30.333Z,17.8
2022-10-03T10:17:34.082Z,17.9
2022-10-03T10:18:37.171Z,17.8
2022-10-03T10:19:40.604Z,17.8
2022-10-03T10:20:43.115Z,17.9
2022-10-03T10:21:46.308Z,17.9
2022-10-03T10:22:49.616Z,17.9
2022-10-03T10:23:52.411Z,17.9
2022-10-03T10:24:55.139Z,18
2022-10-03T10:25:58.133Z,18
2022-10-03T10:27:00.745Z,17.9
2022-10-03T10:28:03.960Z,18
2022-10-03T10:29:06.617Z,18
2022-10-03T10:30:09.710Z,18
2022-10-03T10:31:13.170Z,17.9
2022-10-03T10:32:22.437Z,18
2022-10-03T10:33:25.908Z,18
2022-10-03T10:34:28.820Z,18.1
2022-10-03T10:35:31.702Z,18.2
2022-10-03T10:36:34.693Z,18.3
2022-10-03T10:37:39.815Z,18.4
2022-10-03T10:38:49.774Z,18.5
2022-10-03T10:39:52.388Z,18.7
2022-10-03T10:40:55.207Z,18.8
2022-10-03T10:42:01.701Z,18.9
2022-10-03T10:43:04.142Z,19
2022-10-03T10:44:07.588Z,19.2
2022-10-03T10:45:10.770Z,19.3
2022-10-03T10:46:14.034Z,19.4
2022-10-03T10:47:17.038Z,19.5
2022-10-03T10:48:20.493Z,19.6
2022-10-03T10:49:24.170Z,19.7
2022-10-03T10:50:26.641Z,19.7
2022-10-03T10:51:30.368Z,19.7
2022-10-03T10:52:33.508Z,19.8
2022-10-03T10:53:36.676Z,19.9
2022-10-03T10:54:40.392Z,20
2022-10-03T10:55:47.130Z,20.1
2022-10-03T10:56:50.831Z,20.1
2022-10-03T10:57:53.913Z,20.1
2022-10-03T10:58:57.087Z,20.1
2022-10-03T10:59:59.889Z,20.1
2022-10-03T11:01:02.996Z,20.1
2022-10-03T11:02:06.731Z,20.1
2022-10-03T11:03:09.720Z,20.1
2022-10-03T11:04:13.075Z,20.2
2022-10-03T11:05:16.353Z,20.2
2022-10-03T11:06:20.006Z,20.2
2022-10-03T11:07:23.082Z,20.3
2022-10-03T11:08:26.261Z,20.3
2022-10-03T11:09:29.371Z,20.3
2022-10-03T11:10:32.178Z,20.4
2022-10-03T11:11:35.530Z,20.5
2022-10-03T11:12:37.971Z,20.5
2022-10-03T11:13:40.980Z,20.6
2022-10-03T11:14:43.963Z,20.6
2022-10-03T11:15:46.690Z,20.7
2022-10-03T11:16:49.605Z,20.7
2022-10-03T11:17:52.914Z,20.7
2022-10-03T11:18:56.067Z,20.7
2022-10-03T11:19:59.445Z,20.7
2022-10-03T11:21:02.006Z,20.7
2022-10-03T11:22:05.188Z,20.7
2022-10-03T11:23:08.606Z,20.7
2022-10-03T11:24:11.403Z,20.7
2022-10-03T11:25:14.319Z,20.7
2022-10-03T11:26:18.037Z,20.7
2022-10-03T11:27:21.463Z,20.7
2022-10-03T11:28:28.151Z,20.6
2022-10-03T11:29:31.241Z,20.6
2022-10-03T11:30:34.084Z,20.5
2022-10-03T11:31:37.382Z,20.5
2022-10-03T11:32:40.804Z,20.5
2022-10-03T11:33:43.908Z,20.5
2022-10-03T11:34:47.158Z,20.5
2022-10-03T11:35:50.340Z,20.6
2022-10-03T11:36:53.930Z,20.6
2022-10-03T11:37:57.077Z,20.7
2022-10-03T11:39:00.821Z,20.7
2022-10-03T11:40:03.346Z,20.8
2022-10-03T11:41:06.178Z,20.9
2022-10-03T11:42:09.480Z,21
2022-10-03T11:43:12.718Z,21
2022-10-03T11:44:16.096Z,21.2
2022-10-03T11:45:19.830Z,21.3
2022-10-03T11:46:22.646Z,21.4
2022-10-03T11:47:25.717Z,21.5
2022-10-03T11:48:28.879Z,21.6
2022-10-03T11:49:32.120Z,21.6
2022-10-03T11:50:35.386Z,21.7
2022-10-03T11:51:38.520Z,21.7
2022-10-03T11:52:41.921Z,21.7
2022-10-03T11:53:45.103Z,21.6
2022-10-03T11:54:47.991Z,21.6
2022-10-03T11:55:51.476Z,21.5
2022-10-03T11:56:55.161Z,21.5
2022-10-03T11:57:57.959Z,21.4
2022-10-03T11:59:00.675Z,21.4
2022-10-03T12:00:03.757Z,21.3
2022-10-03T12:01:07.199Z,21.2
2022-10-03T12:02:10.522Z,21.1
2022-10-03T12:03:14.127Z,21
2022-10-03T12:04:17.738Z,21
2022-10-03T12:05:20.642Z,20.9
2022-10-03T12:06:23.721Z,20.8
2022-10-03T12:07:27.281Z,20.8
2022-10-03T12:08:30.762Z,20.7
2022-10-03T12:09:33.771Z,20.7
2022-10-03T12:10:36.767Z,20.6
2022-10-03T12:11:40.316Z,20.6
2022-10-03T12:12:45.421Z,20.5
2022-10-03T12:13:48.851Z,20.5
2022-10-03T12:14:51.922Z,20.4
2022-10-03T12:15:55.783Z,20.4
2022-10-03T12:16:59.093Z,20.4
2022-10-03T12:18:02.848Z,20.3
2022-10-03T12:19:06.301Z,20.3
2022-10-03T12:20:09.305Z,20.3
2022-10-03T12:21:12.871Z,20.2
2022-10-03T12:22:23.973Z,20.1
2022-10-03T12:23:27.121Z,20.1
2022-10-03T12:24:30.536Z,20
2022-10-03T12:25:33.998Z,20
2022-10-03T12:26:37.077Z,20
2022-10-03T12:27:39.925Z,19.9
2022-10-03T12:28:43.487Z,19.9
2022-10-03T12:29:46.590Z,19.9
2022-10-03T12:30:49.393Z,19.8
2022-10-03T12:31:52.325Z,19.8
2022-10-03T12:32:55.377Z,19.7
2022-10-03T12:33:58.762Z,19.7
2022-10-03T12:35:01.561Z,19.7
2022-10-03T12:36:04.942Z,19.7
2022-10-03T12:37:08.761Z,19.6
2022-10-03T12:38:11.281Z,19.6
2022-10-03T12:39:14.099Z,19.6
2022-10-03T12:40:17.859Z,19.6
2022-10-03T12:41:21.063Z,19.6
2022-10-03T12:42:24.401Z,19.6
2022-10-03T12:43:26.862Z,19.6
2022-10-03T12:44:30.230Z,19.6
2022-10-03T12:45:32.982Z,19.6
2022-10-03T12:46:36.596Z,19.6
2022-10-03T12:47:56.902Z,19.6
2022-10-03T12:49:00.589Z,19.6
2022-10-03T12:50:03.579Z,19.7
2022-10-03T12:51:06.513Z,19.7
2022-10-03T12:52:09.521Z,19.7
2022-10-03T12:53:12.619Z,19.8
2022-10-03T12:54:15.697Z,19.8
2022-10-03T12:55:19.713Z,19.8
2022-10-03T12:56:23.004Z,19.9
2022-10-03T12:57:26.391Z,19.9
2022-10-03T12:58:28.277Z,19.9
2022-10-03T12:59:30.811Z,19.9
2022-10-03T13:00:33.909Z,19.9
2022-10-03T13:01:38.705Z,20
2022-10-03T13:02:43.664Z,20
2022-10-03T13:03:47.554Z,19.9
2022-10-03T13:04:51.284Z,19.9
2022-10-03T13:05:54.422Z,19.9
2022-10-03T13:07:05.900Z,19.9
2022-10-03T13:08:08.186Z,19.9
2022-10-03T13:09:11.629Z,19.9
2022-10-03T13:10:15.071Z,19.9
2022-10-03T13:11:18.876Z,19.9
2022-10-03T13:12:28.636Z,19.8
2022-10-03T13:13:32.375Z,19.9
2022-10-03T13:14:36.107Z,19.9
2022-10-03T13:15:39.212Z,19.9
2022-10-03T13:16:41.839Z,19.9
2022-10-03T13:17:45.199Z,19.9
2022-10-03T13:18:48.576Z,19.9
2022-10-03T13:19:51.564Z,19.9
2022-10-03T13:20:54.087Z,19.9
2022-10-03T13:21:58.611Z,19.9
2022-10-03T13:23:02.652Z,19.9
2022-10-03T13:24:05.923Z,19.9
2022-10-03T13:25:09.381Z,20
2022-10-03T13:26:19.152Z,20
2022-10-03T13:27:22.905Z,20.1
2022-10-03T13:28:26.023Z,20.1
2022-10-03T13:29:29.112Z,20.2
2022-10-03T13:30:32.266Z,20.2
2022-10-03T13:31:35.748Z,20.2
2022-10-03T13:32:39.915Z,20.2
2022-10-03T13:33:43.372Z,20.2
2022-10-03T13:34:45.805Z,20.2
2022-10-03T13:35:49.363Z,20.2
2022-10-03T13:36:52.799Z,20.2
2022-10-03T13:37:56.499Z,20.2
2022-10-03T13:38:59.453Z,20.2
2022-10-03T13:40:02.635Z,20.1
2022-10-03T13:41:06.176Z,20.1
2022-10-03T13:42:08.502Z,20.1
2022-10-03T13:43:11.659Z,20.1
2022-10-03T13:44:15.189Z,20
2022-10-03T13:45:17.999Z,20
2022-10-03T13:46:21.948Z,20
2022-10-03T13:47:25.031Z,19.9
2022-10-03T13:48:28.128Z,19.9
2022-10-03T13:49:31.549Z,19.9
2022-10-03T13:50:34.299Z,19.9
2022-10-03T13:51:37.705Z,19.8
2022-10-03T13:52:41.902Z,19.8
2022-10-03T13:53:45.063Z,19.8
2022-10-03T13:54:48.570Z,19.8
2022-10-03T13:55:58.992Z,19.7
2022-10-03T13:57:02.530Z,19.7
2022-10-03T13:58:05.672Z,19.6
2022-10-03T13:59:09.062Z,19.6
2022-10-03T14:00:11.991Z,19.6
2022-10-03T14:01:15.330Z,19.5
2022-10-03T14:02:18.265Z,19.5
2022-10-03T14:03:22.150Z,19.4
2022-10-03T14:04:25.039Z,19.4
2022-10-03T14:05:28.390Z,19.3
2022-10-03T14:06:38.709Z,19.3
2022-10-03T14:07:41.847Z,19.3
2022-10-03T14:08:45.026Z,19.2
2022-10-03T14:09:48.094Z,19.2
2022-10-03T14:10:51.200Z,19.2
2022-10-03T14:11:54.280Z,19.2